Главная страница
METAR-TAF:

METAR-TAF

Аэропорты :

Butler, Пенсильвания, США

широта: 40-47N, долгота: 079-57W, высота над уровнем моря: 380 м

Текущие метеонаблюдения

Эта сводка был подготовлена 1 час и 1 минут назад, в 21:56 UTC
Ветер 4 Узел переменных направлений
Температура 9°C
Влажность 66%
Давление 1014 hPa
Видимость: 16.1 км
небольшая облачность на высоте 3200 фута
Рассеянная облачность на высоте 4500 фута

METAR: KBTP 072156Z AUTO VRB04KT 10SM FEW032 BKN045 09/03 A2993 RMK AO2 SLP144 T00890028

Время: 18:57 (22:57 UTC)


TAF: отсутствует

Метеонаблюдения и прогнозы для более 4000 аэропортов (сводки METAR и TAF).

Имеющиеся станции представлены на карте желтыми и красными точками.

Чтобы увидеть название станции, наведите на нее мышь.

Затем щелкните, чтобы увидеть метеонаблюдения и метеопрогнозы.

Управление картой: чтобы увеличить масштаб, щелкните зеленые кнопки с черным крестиком; чтобы уменьшить масштаб, щелкните зеленую кнопку с тире; для просмотра соседних карт щелкайте зеленые стрелки.


METAR-TAF: